sensor_id;sensor_type;location;lat;lon;timestamp;P1;durP1;ratioP1;P2;durP2;ratioP2
64063;SDS011;50314;50.618;10.642;2023-06-10T00:04:53;2.63;;;2.13;;
64063;SDS011;50314;50.618;10.642;2023-06-10T00:11:17;2.88;;;2.40;;
64063;SDS011;50314;50.618;10.642;2023-06-10T00:16:33;2.80;;;2.17;;
64063;SDS011;50314;50.618;10.642;2023-06-10T00:19:08;2.97;;;2.47;;
64063;SDS011;50314;50.618;10.642;2023-06-10T00:21:34;2.70;;;2.10;;
64063;SDS011;50314;50.618;10.642;2023-06-10T00:24:05;2.90;;;2.22;;
64063;SDS011;50314;50.618;10.642;2023-06-10T00:26:39;2.55;;;2.10;;
64063;SDS011;50314;50.618;10.642;2023-06-10T00:29:06;3.13;;;2.70;;
64063;SDS011;50314;50.618;10.642;2023-06-10T00:31:33;3.17;;;2.05;;
64063;SDS011;50314;50.618;10.642;2023-06-10T00:33:59;3.20;;;2.90;;
64063;SDS011;50314;50.618;10.642;2023-06-10T00:39:18;3.53;;;2.50;;
64063;SDS011;50314;50.618;10.642;2023-06-10T00:41:44;3.50;;;2.35;;
64063;SDS011;50314;50.618;10.642;2023-06-10T00:44:09;3.17;;;2.28;;
64063;SDS011;50314;50.618;10.642;2023-06-10T00:46:38;3.10;;;2.40;;
64063;SDS011;50314;50.618;10.642;2023-06-10T00:49:03;2.67;;;2.20;;
64063;SDS011;50314;50.618;10.642;2023-06-10T00:54:23;3.20;;;2.33;;
64063;SDS011;50314;50.618;10.642;2023-06-10T00:57:01;2.95;;;2.22;;
64063;SDS011;50314;50.618;10.642;2023-06-10T00:59:30;2.67;;;2.13;;
64063;SDS011;50314;50.618;10.642;2023-06-10T01:02:03;3.20;;;2.35;;
64063;SDS011;50314;50.618;10.642;2023-06-10T01:04:29;3.05;;;2.28;;
64063;SDS011;50314;50.618;10.642;2023-06-10T01:14:05;2.80;;;2.20;;
64063;SDS011;50314;50.618;10.642;2023-06-10T01:16:38;3.25;;;2.05;;
64063;SDS011;50314;50.618;10.642;2023-06-10T01:22:26;3.05;;;2.33;;
64063;SDS011;50314;50.618;10.642;2023-06-10T01:28:47;2.47;;;2.10;;
64063;SDS011;50314;50.618;10.642;2023-06-10T01:34:16;2.60;;;2.10;;
64063;SDS011;50314;50.618;10.642;2023-06-10T01:40:18;5.00;;;2.40;;
64063;SDS011;50314;50.618;10.642;2023-06-10T01:42:45;2.47;;;1.98;;
64063;SDS011;50314;50.618;10.642;2023-06-10T01:45:29;2.65;;;2.00;;
64063;SDS011;50314;50.618;10.642;2023-06-10T01:51:24;3.08;;;2.20;;
64063;SDS011;50314;50.618;10.642;2023-06-10T01:53:50;2.67;;;2.20;;
64063;SDS011;50314;50.618;10.642;2023-06-10T01:59:20;2.75;;;2.15;;
64063;SDS011;50314;50.618;10.642;2023-06-10T02:01:57;2.70;;;2.00;;
64063;SDS011;50314;50.618;10.642;2023-06-10T02:04:23;2.58;;;2.13;;
64063;SDS011;50314;50.618;10.642;2023-06-10T02:06:48;2.55;;;1.90;;
64063;SDS011;50314;50.618;10.642;2023-06-10T02:09:21;2.40;;;1.90;;
64063;SDS011;50314;50.618;10.642;2023-06-10T02:11:48;3.25;;;2.35;;
64063;SDS011;50314;50.618;10.642;2023-06-10T02:14:14;2.95;;;2.17;;
64063;SDS011;50314;50.618;10.642;2023-06-10T02:22:28;2.50;;;2.08;;
64063;SDS011;50314;50.618;10.642;2023-06-10T02:25:12;3.33;;;2.40;;
64063;SDS011;50314;50.618;10.642;2023-06-10T02:27:38;2.92;;;1.85;;
64063;SDS011;50314;50.618;10.642;2023-06-10T02:30:03;3.30;;;2.42;;
64063;SDS011;50314;50.618;10.642;2023-06-10T02:33:08;3.28;;;2.22;;
64063;SDS011;50314;50.618;10.642;2023-06-10T02:38:46;2.95;;;2.30;;
64063;SDS011;50314;50.618;10.642;2023-06-10T02:41:27;2.88;;;2.00;;
64063;SDS011;50314;50.618;10.642;2023-06-10T02:43:52;3.05;;;2.45;;
64063;SDS011;50314;50.618;10.642;2023-06-10T02:46:27;2.90;;;2.42;;
64063;SDS011;50314;50.618;10.642;2023-06-10T02:49:02;2.97;;;2.15;;
64063;SDS011;50314;50.618;10.642;2023-06-10T02:51:34;2.60;;;1.90;;
64063;SDS011;50314;50.618;10.642;2023-06-10T02:54:00;2.92;;;2.17;;
64063;SDS011;50314;50.618;10.642;2023-06-10T02:56:29;3.70;;;2.20;;
64063;SDS011;50314;50.618;10.642;2023-06-10T02:58:55;3.20;;;2.20;;
64063;SDS011;50314;50.618;10.642;2023-06-10T03:01:21;3.53;;;2.55;;
64063;SDS011;50314;50.618;10.642;2023-06-10T03:03:46;2.50;;;1.95;;
64063;SDS011;50314;50.618;10.642;2023-06-10T03:09:57;3.35;;;2.30;;
64063;SDS011;50314;50.618;10.642;2023-06-10T03:15:10;2.75;;;1.95;;
64063;SDS011;50314;50.618;10.642;2023-06-10T03:17:35;2.63;;;2.20;;
64063;SDS011;50314;50.618;10.642;2023-06-10T03:20:07;2.70;;;2.03;;
64063;SDS011;50314;50.618;10.642;2023-06-10T03:22:35;4.72;;;2.47;;
64063;SDS011;50314;50.618;10.642;2023-06-10T03:25:03;2.85;;;2.17;;
64063;SDS011;50314;50.618;10.642;2023-06-10T03:27:29;3.05;;;2.20;;
64063;SDS011;50314;50.618;10.642;2023-06-10T03:30:19;2.53;;;2.20;;
64063;SDS011;50314;50.618;10.642;2023-06-10T03:41:41;2.95;;;2.13;;
64063;SDS011;50314;50.618;10.642;2023-06-10T03:44:07;3.13;;;2.45;;
64063;SDS011;50314;50.618;10.642;2023-06-10T03:49:29;2.70;;;2.03;;
64063;SDS011;50314;50.618;10.642;2023-06-10T03:51:54;3.38;;;2.20;;
64063;SDS011;50314;50.618;10.642;2023-06-10T03:54:29;2.85;;;2.20;;
64063;SDS011;50314;50.618;10.642;2023-06-10T03:57:05;3.03;;;2.28;;
64063;SDS011;50314;50.618;10.642;2023-06-10T04:03:17;3.05;;;2.17;;
64063;SDS011;50314;50.618;10.642;2023-06-10T04:05:58;3.97;;;2.17;;
64063;SDS011;50314;50.618;10.642;2023-06-10T04:08:29;2.95;;;2.42;;
64063;SDS011;50314;50.618;10.642;2023-06-10T04:17:43;3.20;;;2.10;;
64063;SDS011;50314;50.618;10.642;2023-06-10T04:23:03;2.28;;;1.90;;
64063;SDS011;50314;50.618;10.642;2023-06-10T04:25:29;2.88;;;2.08;;
64063;SDS011;50314;50.618;10.642;2023-06-10T04:28:00;3.20;;;2.10;;
64063;SDS011;50314;50.618;10.642;2023-06-10T04:30:29;3.38;;;2.28;;
64063;SDS011;50314;50.618;10.642;2023-06-10T04:36:21;3.42;;;2.38;;
64063;SDS011;50314;50.618;10.642;2023-06-10T04:38:52;2.25;;;1.88;;
64063;SDS011;50314;50.618;10.642;2023-06-10T04:41:33;3.28;;;2.40;;
64063;SDS011;50314;50.618;10.642;2023-06-10T04:44:01;2.60;;;1.98;;
64063;SDS011;50314;50.618;10.642;2023-06-10T04:46:27;2.90;;;2.38;;
64063;SDS011;50314;50.618;10.642;2023-06-10T04:48:58;3.22;;;2.20;;
64063;SDS011;50314;50.618;10.642;2023-06-10T04:58:22;3.15;;;2.30;;
64063;SDS011;50314;50.618;10.642;2023-06-10T05:00:47;2.60;;;2.10;;
64063;SDS011;50314;50.618;10.642;2023-06-10T05:03:22;2.75;;;1.95;;
64063;SDS011;50314;50.618;10.642;2023-06-10T05:09:25;3.08;;;2.05;;
64063;SDS011;50314;50.618;10.642;2023-06-10T05:15:22;4.15;;;3.15;;
64063;SDS011;50314;50.618;10.642;2023-06-10T05:17:55;6.97;;;4.25;;
64063;SDS011;50314;50.618;10.642;2023-06-10T05:20:54;5.25;;;3.67;;
64063;SDS011;50314;50.618;10.642;2023-06-10T05:23:26;5.05;;;3.95;;
64063;SDS011;50314;50.618;10.642;2023-06-10T05:26:04;5.15;;;3.88;;
64063;SDS011;50314;50.618;10.642;2023-06-10T05:39:54;6.15;;;4.47;;
64063;SDS011;50314;50.618;10.642;2023-06-10T05:42:20;5.95;;;4.20;;
64063;SDS011;50314;50.618;10.642;2023-06-10T05:44:45;4.90;;;3.65;;
64063;SDS011;50314;50.618;10.642;2023-06-10T05:47:11;5.22;;;4.18;;
64063;SDS011;50314;50.618;10.642;2023-06-10T05:49:36;5.68;;;3.85;;
64063;SDS011;50314;50.618;10.642;2023-06-10T05:52:02;5.68;;;4.25;;
64063;SDS011;50314;50.618;10.642;2023-06-10T05:54:28;5.90;;;3.83;;
64063;SDS011;50314;50.618;10.642;2023-06-10T05:56:53;5.63;;;4.03;;
64063;SDS011;50314;50.618;10.642;2023-06-10T05:59:19;7.35;;;4.22;;
64063;SDS011;50314;50.618;10.642;2023-06-10T06:01:45;6.53;;;3.83;;
64063;SDS011;50314;50.618;10.642;2023-06-10T06:04:10;6.13;;;4.00;;
64063;SDS011;50314;50.618;10.642;2023-06-10T06:06:38;5.95;;;4.13;;
64063;SDS011;50314;50.618;10.642;2023-06-10T06:09:05;6.40;;;4.15;;
64063;SDS011;50314;50.618;10.642;2023-06-10T06:11:33;6.45;;;3.88;;
64063;SDS011;50314;50.618;10.642;2023-06-10T06:13:59;5.28;;;3.80;;
64063;SDS011;50314;50.618;10.642;2023-06-10T06:16:25;6.30;;;3.90;;
64063;SDS011;50314;50.618;10.642;2023-06-10T06:18:50;5.40;;;4.07;;
64063;SDS011;50314;50.618;10.642;2023-06-10T06:21:16;5.10;;;3.78;;
64063;SDS011;50314;50.618;10.642;2023-06-10T06:23:41;6.45;;;4.28;;
64063;SDS011;50314;50.618;10.642;2023-06-10T06:26:07;6.72;;;3.65;;
64063;SDS011;50314;50.618;10.642;2023-06-10T06:28:32;5.32;;;4.28;;
64063;SDS011;50314;50.618;10.642;2023-06-10T06:30:58;8.05;;;4.20;;
64063;SDS011;50314;50.618;10.642;2023-06-10T06:33:24;4.38;;;3.83;;
64063;SDS011;50314;50.618;10.642;2023-06-10T06:38:17;6.07;;;4.18;;
64063;SDS011;50314;50.618;10.642;2023-06-10T06:40:42;5.70;;;4.20;;
64063;SDS011;50314;50.618;10.642;2023-06-10T06:43:08;5.15;;;3.90;;
64063;SDS011;50314;50.618;10.642;2023-06-10T06:45:33;4.63;;;4.10;;
64063;SDS011;50314;50.618;10.642;2023-06-10T06:47:59;5.90;;;4.28;;
64063;SDS011;50314;50.618;10.642;2023-06-10T06:50:25;8.80;;;4.80;;
64063;SDS011;50314;50.618;10.642;2023-06-10T06:52:50;7.90;;;4.53;;
64063;SDS011;50314;50.618;10.642;2023-06-10T06:55:16;6.18;;;4.13;;
64063;SDS011;50314;50.618;10.642;2023-06-10T06:57:42;5.13;;;3.75;;
64063;SDS011;50314;50.618;10.642;2023-06-10T07:00:07;5.93;;;3.80;;
64063;SDS011;50314;50.618;10.642;2023-06-10T07:02:34;5.22;;;3.63;;
64063;SDS011;50314;50.618;10.642;2023-06-10T07:05:00;5.22;;;3.90;;
64063;SDS011;50314;50.618;10.642;2023-06-10T07:07:26;6.13;;;3.95;;
64063;SDS011;50314;50.618;10.642;2023-06-10T07:09:52;7.72;;;3.75;;
64063;SDS011;50314;50.618;10.642;2023-06-10T07:12:17;5.05;;;3.55;;
64063;SDS011;50314;50.618;10.642;2023-06-10T07:14:43;6.15;;;3.67;;
64063;SDS011;50314;50.618;10.642;2023-06-10T07:17:09;4.47;;;3.22;;
64063;SDS011;50314;50.618;10.642;2023-06-10T07:19:35;4.65;;;3.67;;
64063;SDS011;50314;50.618;10.642;2023-06-10T07:22:01;5.35;;;4.05;;
64063;SDS011;50314;50.618;10.642;2023-06-10T07:24:26;5.63;;;3.53;;
64063;SDS011;50314;50.618;10.642;2023-06-10T07:26:52;4.68;;;3.50;;
64063;SDS011;50314;50.618;10.642;2023-06-10T07:29:18;4.57;;;3.40;;
64063;SDS011;50314;50.618;10.642;2023-06-10T07:31:43;4.18;;;3.15;;
64063;SDS011;50314;50.618;10.642;2023-06-10T07:34:09;6.13;;;3.60;;
64063;SDS011;50314;50.618;10.642;2023-06-10T07:36:34;5.05;;;3.35;;
64063;SDS011;50314;50.618;10.642;2023-06-10T07:39:01;4.15;;;3.30;;
64063;SDS011;50314;50.618;10.642;2023-06-10T07:41:27;4.43;;;3.38;;
64063;SDS011;50314;50.618;10.642;2023-06-10T07:43:53;4.20;;;2.90;;
64063;SDS011;50314;50.618;10.642;2023-06-10T07:46:22;5.50;;;3.22;;
64063;SDS011;50314;50.618;10.642;2023-06-10T07:48:48;5.10;;;3.38;;
64063;SDS011;50314;50.618;10.642;2023-06-10T07:51:15;4.47;;;2.90;;
64063;SDS011;50314;50.618;10.642;2023-06-10T07:53:41;5.80;;;2.95;;
64063;SDS011;50314;50.618;10.642;2023-06-10T07:56:07;4.85;;;3.13;;
64063;SDS011;50314;50.618;10.642;2023-06-10T07:58:32;4.50;;;2.90;;
64063;SDS011;50314;50.618;10.642;2023-06-10T08:00:58;5.03;;;3.15;;
64063;SDS011;50314;50.618;10.642;2023-06-10T08:03:24;3.90;;;3.17;;
64063;SDS011;50314;50.618;10.642;2023-06-10T08:05:49;4.38;;;3.00;;
64063;SDS011;50314;50.618;10.642;2023-06-10T08:08:15;3.80;;;2.97;;
64063;SDS011;50314;50.618;10.642;2023-06-10T08:10:40;3.90;;;3.25;;
64063;SDS011;50314;50.618;10.642;2023-06-10T08:13:07;3.58;;;2.60;;
64063;SDS011;50314;50.618;10.642;2023-06-10T08:15:33;3.97;;;2.80;;
64063;SDS011;50314;50.618;10.642;2023-06-10T08:17:59;4.10;;;2.97;;
64063;SDS011;50314;50.618;10.642;2023-06-10T08:20:25;4.20;;;3.13;;
64063;SDS011;50314;50.618;10.642;2023-06-10T08:22:51;3.83;;;2.88;;
64063;SDS011;50314;50.618;10.642;2023-06-10T08:25:17;4.95;;;3.08;;
64063;SDS011;50314;50.618;10.642;2023-06-10T08:27:42;4.22;;;2.83;;
64063;SDS011;50314;50.618;10.642;2023-06-10T08:30:11;4.22;;;2.95;;
64063;SDS011;50314;50.618;10.642;2023-06-10T08:32:38;5.35;;;3.25;;
64063;SDS011;50314;50.618;10.642;2023-06-10T08:35:03;6.03;;;3.30;;
64063;SDS011;50314;50.618;10.642;2023-06-10T08:37:30;6.60;;;3.47;;
64063;SDS011;50314;50.618;10.642;2023-06-10T08:39:55;4.45;;;3.35;;
64063;SDS011;50314;50.618;10.642;2023-06-10T08:42:22;4.63;;;2.95;;
64063;SDS011;50314;50.618;10.642;2023-06-10T08:44:56;5.63;;;3.95;;
64063;SDS011;50314;50.618;10.642;2023-06-10T08:47:24;4.82;;;3.40;;
64063;SDS011;50314;50.618;10.642;2023-06-10T08:49:54;5.22;;;3.22;;
64063;SDS011;50314;50.618;10.642;2023-06-10T08:52:21;5.90;;;3.13;;
64063;SDS011;50314;50.618;10.642;2023-06-10T08:54:56;3.80;;;3.00;;
64063;SDS011;50314;50.618;10.642;2023-06-10T08:57:24;5.00;;;2.97;;
64063;SDS011;50314;50.618;10.642;2023-06-10T08:59:50;5.53;;;3.40;;
64063;SDS011;50314;50.618;10.642;2023-06-10T09:02:17;6.20;;;3.40;;
64063;SDS011;50314;50.618;10.642;2023-06-10T09:04:46;4.30;;;3.88;;
64063;SDS011;50314;50.618;10.642;2023-06-10T09:07:13;4.93;;;3.80;;
64063;SDS011;50314;50.618;10.642;2023-06-10T09:09:41;5.32;;;3.53;;
64063;SDS011;50314;50.618;10.642;2023-06-10T09:12:09;4.75;;;3.65;;
64063;SDS011;50314;50.618;10.642;2023-06-10T09:14:35;5.28;;;3.53;;
64063;SDS011;50314;50.618;10.642;2023-06-10T09:17:01;5.03;;;3.60;;
64063;SDS011;50314;50.618;10.642;2023-06-10T09:19:28;5.18;;;3.38;;
64063;SDS011;50314;50.618;10.642;2023-06-10T09:21:54;4.70;;;3.42;;
64063;SDS011;50314;50.618;10.642;2023-06-10T09:24:23;6.57;;;3.58;;
64063;SDS011;50314;50.618;10.642;2023-06-10T09:26:49;4.35;;;2.95;;
64063;SDS011;50314;50.618;10.642;2023-06-10T09:29:16;5.47;;;3.30;;
64063;SDS011;50314;50.618;10.642;2023-06-10T09:31:42;3.78;;;3.03;;
64063;SDS011;50314;50.618;10.642;2023-06-10T09:34:09;4.70;;;3.22;;
64063;SDS011;50314;50.618;10.642;2023-06-10T09:36:36;4.40;;;3.03;;
64063;SDS011;50314;50.618;10.642;2023-06-10T09:39:03;5.85;;;3.28;;
64063;SDS011;50314;50.618;10.642;2023-06-10T09:41:33;4.80;;;3.00;;
64063;SDS011;50314;50.618;10.642;2023-06-10T09:44:15;4.15;;;3.17;;
64063;SDS011;50314;50.618;10.642;2023-06-10T09:46:46;4.72;;;3.28;;
64063;SDS011;50314;50.618;10.642;2023-06-10T09:49:12;6.47;;;3.15;;
64063;SDS011;50314;50.618;10.642;2023-06-10T09:52:00;5.00;;;3.08;;
64063;SDS011;50314;50.618;10.642;2023-06-10T09:54:24;3.97;;;2.95;;
64063;SDS011;50314;50.618;10.642;2023-06-10T09:56:57;4.47;;;3.42;;
64063;SDS011;50314;50.618;10.642;2023-06-10T09:59:28;4.63;;;2.97;;
64063;SDS011;50314;50.618;10.642;2023-06-10T10:02:05;4.53;;;3.15;;
64063;SDS011;50314;50.618;10.642;2023-06-10T10:04:31;4.05;;;2.80;;
64063;SDS011;50314;50.618;10.642;2023-06-10T10:06:56;6.68;;;3.30;;
64063;SDS011;50314;50.618;10.642;2023-06-10T10:09:24;4.43;;;3.22;;
64063;SDS011;50314;50.618;10.642;2023-06-10T10:11:50;4.65;;;3.58;;
64063;SDS011;50314;50.618;10.642;2023-06-10T10:14:18;6.18;;;3.65;;
64063;SDS011;50314;50.618;10.642;2023-06-10T10:16:46;4.95;;;3.28;;
64063;SDS011;50314;50.618;10.642;2023-06-10T10:19:20;5.20;;;3.22;;
64063;SDS011;50314;50.618;10.642;2023-06-10T10:21:54;4.43;;;3.00;;
64063;SDS011;50314;50.618;10.642;2023-06-10T10:27:01;5.57;;;3.55;;
64063;SDS011;50314;50.618;10.642;2023-06-10T10:29:39;4.97;;;3.10;;
64063;SDS011;50314;50.618;10.642;2023-06-10T10:32:06;6.60;;;3.25;;
64063;SDS011;50314;50.618;10.642;2023-06-10T10:34:37;4.75;;;4.00;;
64063;SDS011;50314;50.618;10.642;2023-06-10T10:37:12;5.05;;;3.47;;
64063;SDS011;50314;50.618;10.642;2023-06-10T10:39:38;6.57;;;3.42;;
64063;SDS011;50314;50.618;10.642;2023-06-10T10:42:04;5.82;;;3.47;;
64063;SDS011;50314;50.618;10.642;2023-06-10T10:44:34;5.93;;;3.88;;
64063;SDS011;50314;50.618;10.642;2023-06-10T10:49:28;5.30;;;3.38;;
64063;SDS011;50314;50.618;10.642;2023-06-10T10:52:02;4.72;;;3.65;;
64063;SDS011;50314;50.618;10.642;2023-06-10T10:57:11;7.70;;;3.72;;
64063;SDS011;50314;50.618;10.642;2023-06-10T11:02:44;5.03;;;3.42;;
64063;SDS011;50314;50.618;10.642;2023-06-10T11:05:14;6.53;;;3.58;;
64063;SDS011;50314;50.618;10.642;2023-06-10T11:07:51;5.38;;;3.33;;
64063;SDS011;50314;50.618;10.642;2023-06-10T11:10:28;5.10;;;3.03;;
64063;SDS011;50314;50.618;10.642;2023-06-10T11:12:58;6.45;;;3.40;;
64063;SDS011;50314;50.618;10.642;2023-06-10T11:15:25;5.57;;;3.42;;
64063;SDS011;50314;50.618;10.642;2023-06-10T11:18:08;6.88;;;3.70;;
64063;SDS011;50314;50.618;10.642;2023-06-10T11:26:12;3.88;;;3.08;;
64063;SDS011;50314;50.618;10.642;2023-06-10T11:29:05;4.82;;;3.70;;
64063;SDS011;50314;50.618;10.642;2023-06-10T11:31:43;5.82;;;3.42;;
64063;SDS011;50314;50.618;10.642;2023-06-10T11:34:10;6.90;;;3.47;;
64063;SDS011;50314;50.618;10.642;2023-06-10T11:36:39;5.03;;;3.38;;
64063;SDS011;50314;50.618;10.642;2023-06-10T11:39:10;6.28;;;3.72;;
64063;SDS011;50314;50.618;10.642;2023-06-10T11:41:37;6.53;;;3.38;;
64063;SDS011;50314;50.618;10.642;2023-06-10T11:44:05;4.93;;;3.22;;
64063;SDS011;50314;50.618;10.642;2023-06-10T11:46:33;5.18;;;3.30;;
64063;SDS011;50314;50.618;10.642;2023-06-10T11:49:00;5.30;;;3.28;;
64063;SDS011;50314;50.618;10.642;2023-06-10T11:51:28;5.97;;;3.40;;
64063;SDS011;50314;50.618;10.642;2023-06-10T11:53:55;6.43;;;3.08;;
64063;SDS011;50314;50.618;10.642;2023-06-10T11:56:28;5.72;;;3.42;;
64063;SDS011;50314;50.618;10.642;2023-06-10T11:58:57;6.40;;;3.55;;
64063;SDS011;50314;50.618;10.642;2023-06-10T12:01:36;4.90;;;3.33;;
